Time;durP1;ratioP1;P1;durP2;ratioP2;P2;SDS_P1;SDS_P2;PMS_P1;PMS_P2;Temp;Humidity;BMP_temperature;BMP_pressure;BME280_temperature;BME280_humidity;BME280_pressure;Samples;Min_cycle;Max_cycle;Signal;HPM_P1;HPM_P2
2022/05/28 00:00:04;;;;;;;2.27;1.17;;;;;;;11.94;86.26;99639.34;1623168;88;21468;-64
2022/05/28 00:02:32;;;;;;;1.85;1.40;;;;;;;11.94;86.40;99659.40;1621619;88;20993;-66
2022/05/28 00:05:01;;;;;;;3.02;1.22;;;;;;;11.93;86.33;99673.34;1621689;88;21012;-68
2022/05/28 00:07:29;;;;;;;1.92;1.27;;;;;;;11.94;86.42;99690.13;1621669;88;21345;-68
2022/05/28 00:09:58;;;;;;;1.67;1.10;;;;;;;11.93;86.44;99681.05;1621652;88;21417;-67
2022/05/28 00:12:30;;;;;;;3.05;1.40;;;;;;;11.95;86.15;99674.80;1621724;88;20988;-66
2022/05/28 00:15:00;;;;;;;3.27;1.45;;;;;;;11.93;86.08;99674.72;1621830;88;20989;-66
2022/05/28 00:17:30;;;;;;;1.45;1.15;;;;;;;11.91;85.98;99668.62;1621666;88;21028;-66
2022/05/28 00:19:58;;;;;;;3.90;1.17;;;;;;;11.91;86.18;99648.03;1621815;88;20945;-65
2022/05/28 00:22:27;;;;;;;1.80;1.22;;;;;;;11.90;86.01;99637.58;1621725;88;21013;-66
2022/05/28 00:24:56;;;;;;;1.95;1.40;;;;;;;11.87;85.57;99628.42;1621740;88;21005;-64
2022/05/28 00:27:25;;;;;;;1.95;1.00;;;;;;;11.83;85.71;99601.65;1621660;88;21464;-66
2022/05/28 00:29:53;;;;;;;3.92;1.20;;;;;;;11.83;85.65;99597.53;1621708;88;21004;-67
2022/05/28 00:32:22;;;;;;;1.95;1.07;;;;;;;11.85;85.59;99618.73;1621776;88;21011;-65
2022/05/28 00:34:51;;;;;;;3.22;1.30;;;;;;;11.84;85.41;99621.17;1621819;88;21024;-66
2022/05/28 00:37:19;;;;;;;2.02;1.30;;;;;;;11.84;85.37;99615.69;1621797;88;20960;-66
2022/05/28 00:39:48;;;;;;;2.00;1.30;;;;;;;11.84;85.32;99608.82;1621703;88;20969;-65
2022/05/28 00:42:16;;;;;;;1.85;1.37;;;;;;;11.83;85.57;99623.08;1621678;88;20988;-66
2022/05/28 00:44:45;;;;;;;1.95;1.20;;;;;;;11.87;85.74;99627.58;1621602;88;21036;-66
2022/05/28 00:47:14;;;;;;;2.55;1.35;;;;;;;11.87;85.79;99644.05;1621822;88;20976;-66
2022/05/28 00:49:43;;;;;;;2.15;1.30;;;;;;;11.88;85.75;99641.08;1621664;88;20989;-65
2022/05/28 00:52:12;;;;;;;13.00;1.37;;;;;;;11.87;85.90;99638.56;1596219;88;21004;-65
2022/05/28 00:54:45;;;;;;;1.40;1.00;;;;;;;11.86;85.92;99633.61;1621884;88;20976;-64
2022/05/28 00:57:16;;;;;;;2.70;1.30;;;;;;;11.86;85.73;99628.12;1621604;88;21405;-65
2022/05/28 00:59:45;;;;;;;3.12;1.60;;;;;;;11.82;85.53;99624.67;1621689;88;21424;-65
2022/05/28 01:02:39;;;;;;;1.70;1.30;;;;;;;11.82;85.73;99632.91;1621858;88;21104;-65
2022/05/28 01:05:26;;;;;;;2.47;1.20;;;;;;;11.82;85.70;99626.05;1621752;88;21036;-65
2022/05/28 01:08:09;;;;;;;3.60;1.30;;;;;;;11.78;85.33;99601.48;1621569;88;21004;-67
2022/05/28 01:11:04;;;;;;;4.00;1.45;;;;;;;11.80;85.44;99607.59;1621797;88;20988;-66
2022/05/28 01:13:37;;;;;;;2.17;1.50;;;;;;;11.82;85.50;99638.39;1621749;88;21005;-65
2022/05/28 01:16:32;;;;;;;2.20;1.60;;;;;;;11.83;85.45;99638.17;1621696;88;21412;-66
2022/05/28 01:19:33;;;;;;;1.77;1.20;;;;;;;11.83;85.23;99642.82;1621818;88;20973;-66
2022/05/28 01:22:16;;;;;;;2.47;1.25;;;;;;;11.82;84.90;99631.53;1621738;88;20972;-66
2022/05/28 01:25:12;;;;;;;2.50;1.52;;;;;;;11.82;85.04;99648.00;1618977;88;20996;-66
2022/05/28 01:27:49;;;;;;;3.62;1.60;;;;;;;11.81;84.84;99645.79;1621704;88;20988;-66
2022/05/28 01:30:18;;;;;;;3.02;1.35;;;;;;;11.81;84.63;99641.67;1621747;88;21020;-67
2022/05/28 01:32:52;;;;;;;2.40;1.25;;;;;;;11.81;84.68;99643.58;1621709;88;21399;-65
2022/05/28 01:35:21;;;;;;;2.45;1.30;;;;;;;11.84;84.70;99634.89;1597588;88;21040;-66
2022/05/28 01:37:50;;;;;;;2.42;1.90;;;;;;;11.84;84.45;99620.64;1621749;88;20984;-66
2022/05/28 01:40:19;;;;;;;2.62;1.70;;;;;;;11.84;84.41;99622.55;1596153;88;21036;-66
2022/05/28 01:42:51;;;;;;;1.42;1.27;;;;;;;11.85;84.50;99622.31;1621728;88;20980;-65
2022/05/28 01:45:23;;;;;;;1.92;1.30;;;;;;;11.85;84.14;99636.58;1596713;88;21052;-66
2022/05/28 01:47:51;;;;;;;2.85;1.60;;;;;;;11.82;83.79;99642.52;1621712;88;20988;-66
2022/05/28 01:50:22;;;;;;;1.80;1.40;;;;;;;11.76;83.61;99655.20;1621684;88;20980;-66
2022/05/28 01:52:51;;;;;;;2.33;1.55;;;;;;;11.74;83.86;99650.46;1621663;88;21067;-67
2022/05/28 01:55:21;;;;;;;2.52;1.52;;;;;;;11.73;83.88;99640.02;1621715;88;21357;-65
2022/05/28 01:57:51;;;;;;;3.20;1.70;;;;;;;11.76;83.98;99635.98;1621945;88;21484;-66
2022/05/28 02:00:20;;;;;;;3.05;1.52;;;;;;;11.77;83.82;99647.80;1621636;88;20985;-66
2022/05/28 02:02:50;;;;;;;3.22;1.42;;;;;;;11.76;83.83;99662.05;1621815;88;21008;-67
2022/05/28 02:05:20;;;;;;;3.77;1.80;;;;;;;11.75;83.41;99655.73;1621744;88;21088;-65
2022/05/28 02:07:49;;;;;;;2.58;1.60;;;;;;;11.73;83.45;99623.55;1621694;88;21005;-64
2022/05/28 02:10:19;;;;;;;2.27;1.70;;;;;;;11.78;83.59;99626.19;1621689;88;20965;-66
2022/05/28 02:13:05;;;;;;;2.33;1.70;;;;;;;11.79;83.48;99620.47;1621651;88;20977;-64
2022/05/28 02:15:55;;;;;;;3.98;1.70;;;;;;;11.81;83.42;99618.88;1621829;88;21008;-65
2022/05/28 02:18:42;;;;;;;3.22;1.70;;;;;;;11.78;83.41;99613.30;1621629;88;21048;-66
2022/05/28 02:21:33;;;;;;;3.45;1.67;;;;;;;11.80;83.43;99618.57;1621806;88;21008;-65
2022/05/28 02:24:19;;;;;;;4.53;1.98;;;;;;;11.81;83.35;99617.50;1621688;88;20981;-65
2022/05/28 02:26:51;;;;;;;3.12;1.50;;;;;;;11.83;83.27;99617.59;1615082;89;20987;-66
2022/05/28 02:29:19;;;;;;;3.15;1.60;;;;;;;11.82;82.98;99617.81;1614949;89;21133;-66
2022/05/28 02:31:49;;;;;;;3.90;1.90;;;;;;;11.81;82.99;99622.46;1615167;89;21026;-65
2022/05/28 02:34:18;;;;;;;2.50;1.80;;;;;;;11.81;82.98;99630.70;1615104;89;21019;-65
2022/05/28 02:36:46;;;;;;;3.27;1.52;;;;;;;11.81;82.78;99647.16;1615094;89;21007;-65
2022/05/28 02:39:16;;;;;;;3.42;1.70;;;;;;;11.81;82.33;99655.39;1615075;89;21451;-66
2022/05/28 02:41:45;;;;;;;4.30;1.80;;;;;;;11.80;82.20;99662.48;1615323;89;20975;-66
2022/05/28 02:44:14;;;;;;;4.72;1.95;;;;;;;11.80;82.34;99654.25;1615113;89;21152;-67
2022/05/28 02:46:42;;;;;;;6.55;2.17;;;;;;;11.80;82.39;99645.48;1615150;89;21080;-67
2022/05/28 02:49:10;;;;;;;2.40;1.60;;;;;;;11.81;82.61;99644.95;1615134;89;21368;-66
2022/05/28 02:51:39;;;;;;;3.70;1.80;;;;;;;11.85;82.54;99637.95;1615091;89;20982;-68
2022/05/28 02:54:08;;;;;;;2.25;1.95;;;;;;;11.86;82.42;99646.49;1615257;89;21430;-66
2022/05/28 02:56:36;;;;;;;3.42;1.72;;;;;;;11.86;82.38;99645.95;1615074;89;21124;-66
2022/05/28 02:59:05;;;;;;;4.20;2.00;;;;;;;11.88;82.31;99647.95;1615124;89;21026;-65
2022/05/28 03:01:34;;;;;;;2.25;1.60;;;;;;;11.89;82.12;99640.02;1615026;89;21436;-68
2022/05/28 03:04:04;;;;;;;4.45;1.90;;;;;;;11.89;81.88;99650.16;1615069;89;20991;-66
2022/05/28 03:06:35;;;;;;;4.28;2.27;;;;;;;11.88;82.01;99652.06;1615209;89;21007;-66
2022/05/28 03:09:05;;;;;;;3.83;2.20;;;;;;;11.88;81.94;99646.57;1615127;89;21019;-66
2022/05/28 03:11:34;;;;;;;2.52;1.90;;;;;;;11.88;81.65;99647.95;1615188;89;21047;-68
2022/05/28 03:14:03;;;;;;;3.10;1.87;;;;;;;11.85;81.55;99647.02;1615133;89;21498;-67
2022/05/28 03:16:31;;;;;;;3.65;2.40;;;;;;;11.86;81.41;99654.19;1615178;89;20995;-66
2022/05/28 03:19:00;;;;;;;2.67;2.05;;;;;;;11.85;81.45;99646.18;1615098;89;20983;-66
2022/05/28 03:21:29;;;;;;;5.28;2.40;;;;;;;11.85;81.29;99668.14;1615026;89;20998;-67
2022/05/28 03:23:57;;;;;;;4.03;1.92;;;;;;;11.81;81.18;99669.12;1615128;89;20967;-67
2022/05/28 03:26:29;;;;;;;3.70;1.75;;;;;;;11.81;81.36;99660.89;1615106;89;21014;-66
2022/05/28 03:28:58;;;;;;;2.90;2.10;;;;;;;11.85;81.40;99664.86;1615133;89;21025;-67
2022/05/28 03:31:27;;;;;;;4.37;2.10;;;;;;;11.91;81.30;99667.25;1615042;89;21018;-67
2022/05/28 03:33:56;;;;;;;2.92;2.02;;;;;;;11.90;81.24;99673.80;1615186;89;21478;-69
2022/05/28 03:36:25;;;;;;;2.87;1.90;;;;;;;11.94;81.18;99671.75;1615056;89;21002;-66
2022/05/28 03:38:54;;;;;;;3.40;1.80;;;;;;;11.96;81.04;99663.29;1615064;89;21031;-67
2022/05/28 03:41:23;;;;;;;2.90;2.10;;;;;;;11.97;80.68;99660.86;1615119;89;20995;-67
2022/05/28 03:43:51;;;;;;;3.40;2.22;;;;;;;11.97;80.24;99662.23;1615081;89;21035;-68
2022/05/28 03:46:32;;;;;;;3.65;2.30;;;;;;;11.96;79.92;99668.78;1615166;89;21403;-68
2022/05/28 03:49:08;;;;;;;3.75;2.02;;;;;;;11.94;80.00;99671.75;1615057;89;21427;-67
2022/05/28 03:51:36;;;;;;;3.12;1.77;;;;;;;11.97;80.01;99671.84;1615202;89;20983;-67
2022/05/28 03:54:05;;;;;;;3.02;2.00;;;;;;;11.98;79.89;99674.89;1615048;89;21014;-66
2022/05/28 03:56:38;;;;;;;2.50;1.80;;;;;;;12.02;79.85;99682.98;1615013;89;21036;-66
2022/05/28 03:59:07;;;;;;;3.90;2.20;;;;;;;12.02;79.86;99676.96;1615164;89;21024;-69
2022/05/28 04:01:36;;;;;;;6.85;2.12;;;;;;;12.03;79.85;99675.05;1612962;89;21042;-68
2022/05/28 04:04:05;;;;;;;4.62;2.10;;;;;;;12.04;79.91;99680.32;1611975;89;20995;-67
2022/05/28 04:06:37;;;;;;;2.92;1.95;;;;;;;12.08;79.74;99681.24;1611911;89;21529;-67
2022/05/28 04:09:05;;;;;;;3.90;2.20;;;;;;;12.11;79.56;99693.16;1612080;89;21011;-66
2022/05/28 04:11:35;;;;;;;2.98;2.05;;;;;;;12.11;79.16;99683.00;1611958;89;21031;-66
2022/05/28 04:14:05;;;;;;;2.42;1.98;;;;;;;12.09;78.99;99683.77;1611893;89;21141;-67
2022/05/28 04:16:34;;;;;;;2.40;1.90;;;;;;;12.12;79.08;99693.45;1611917;89;21085;-67
2022/05/28 04:19:03;;;;;;;4.70;2.00;;;;;;;12.11;78.68;99694.52;1611949;89;21022;-66
2022/05/28 04:21:33;;;;;;;2.55;2.10;;;;;;;12.08;78.70;99693.06;1612210;89;21410;-68
2022/05/28 04:24:01;;;;;;;4.53;2.40;;;;;;;12.07;78.57;99696.87;1612011;89;21055;-67
2022/05/28 04:26:31;;;;;;;4.58;2.20;;;;;;;12.06;78.52;99691.08;1611977;89;20995;-67
2022/05/28 04:29:00;;;;;;;2.37;1.80;;;;;;;12.08;78.37;99693.06;1612046;89;21090;-67
2022/05/28 04:31:30;;;;;;;4.60;2.27;;;;;;;12.13;78.29;99687.74;1611905;89;20967;-67
2022/05/28 04:33:59;;;;;;;5.30;2.10;;;;;;;12.19;78.39;99688.21;1611857;89;21680;-66
2022/05/28 04:36:27;;;;;;;3.05;2.10;;;;;;;12.24;78.39;99696.61;1611903;89;21031;-68
2022/05/28 04:38:56;;;;;;;2.47;1.82;;;;;;;12.33;78.41;99696.63;1611938;89;20998;-66
2022/05/28 04:41:25;;;;;;;4.53;2.02;;;;;;;12.40;78.30;99708.12;1611880;89;21007;-67
2022/05/28 04:43:53;;;;;;;4.90;1.98;;;;;;;12.46;78.05;99709.42;1611921;89;21003;-67
2022/05/28 04:46:22;;;;;;;3.62;2.12;;;;;;;12.50;77.62;99709.81;1611851;89;21011;-67
2022/05/28 04:48:50;;;;;;;5.62;2.20;;;;;;;12.55;77.52;99709.97;1611965;89;20978;-68
2022/05/28 04:51:19;;;;;;;5.30;2.30;;;;;;;12.53;76.47;99703.33;1611983;89;21423;-66
2022/05/28 04:53:48;;;;;;;3.08;2.00;;;;;;;12.49;76.46;99697.98;1611931;89;21391;-67
2022/05/28 04:56:16;;;;;;;5.53;2.40;;;;;;;12.49;76.24;99698.52;1611808;89;21419;-66
2022/05/28 04:58:46;;;;;;;4.33;2.30;;;;;;;12.53;76.33;99705.23;1611856;89;21395;-66
2022/05/28 05:01:17;;;;;;;3.70;2.20;;;;;;;12.57;76.52;99703.17;1613084;89;21094;-68
2022/05/28 05:03:46;;;;;;;5.42;2.77;;;;;;;12.63;76.59;99702.80;1615055;89;21427;-69
2022/05/28 05:06:16;;;;;;;3.75;2.08;;;;;;;12.70;76.48;99702.19;1615048;89;21035;-67
2022/05/28 05:08:44;;;;;;;4.00;2.40;;;;;;;12.76;76.11;99699.06;1615088;89;21379;-67
2022/05/28 05:11:15;;;;;;;4.80;2.47;;;;;;;12.79;75.90;99702.19;1614954;89;21039;-66
2022/05/28 05:13:44;;;;;;;5.33;2.55;;;;;;;12.88;75.91;99715.94;1615177;89;21010;-67
2022/05/28 05:16:15;;;;;;;3.20;2.20;;;;;;;12.92;75.36;99719.06;1615016;89;21014;-66
2022/05/28 05:18:44;;;;;;;4.35;2.00;;;;;;;12.89;75.00;99711.28;1615281;89;21031;-66
2022/05/28 05:21:12;;;;;;;3.70;2.85;;;;;;;12.86;75.02;99715.33;1615172;89;20990;-66
2022/05/28 05:23:42;;;;;;;4.95;2.95;;;;;;;12.85;74.92;99709.52;1614995;89;20967;-66
2022/05/28 05:26:13;;;;;;;3.12;2.12;;;;;;;12.88;75.06;99715.94;1614991;89;21503;-66
2022/05/28 05:28:42;;;;;;;6.00;2.30;;;;;;;12.97;75.31;99704.09;1614938;89;21035;-66
2022/05/28 05:31:13;;;;;;;4.15;2.60;;;;;;;13.06;74.32;99703.27;1615045;89;20999;-67
2022/05/28 05:33:42;;;;;;;4.92;2.30;;;;;;;13.10;73.96;99708.62;1615144;89;21418;-67
2022/05/28 05:36:12;;;;;;;3.58;2.42;;;;;;;13.14;74.21;99705.70;1534978;93;21498;-65
2022/05/28 05:38:41;;;;;;;4.28;2.77;;;;;;;13.24;74.17;99707.41;1535264;93;21035;-65
2022/05/28 05:41:11;;;;;;;4.85;2.35;;;;;;;13.35;73.74;99717.63;1535096;93;21063;-66
2022/05/28 05:43:40;;;;;;;3.27;2.10;;;;;;;13.44;72.83;99720.35;1535170;93;21071;-65
2022/05/28 05:46:10;;;;;;;4.00;2.47;;;;;;;13.50;72.79;99731.80;1535261;93;21137;-67
2022/05/28 05:48:39;;;;;;;6.75;2.95;;;;;;;13.60;72.51;99718.86;1535190;93;21495;-68
2022/05/28 05:51:14;;;;;;;4.37;2.60;;;;;;;13.67;72.17;99721.54;1535137;93;21187;-66
2022/05/28 05:53:43;;;;;;;5.28;2.45;;;;;;;13.78;71.78;99719.36;1552813;89;21467;-66
2022/05/28 05:56:11;;;;;;;3.67;2.35;;;;;;;13.93;71.62;99728.02;1615201;89;21418;-66
2022/05/28 05:58:41;;;;;;;4.67;2.90;;;;;;;14.14;70.81;99723.33;1615316;89;21034;-69
2022/05/28 06:01:10;;;;;;;4.33;2.60;;;;;;;14.33;69.99;99727.39;1585516;90;21099;-67
2022/05/28 06:03:44;;;;;;;4.87;2.33;;;;;;;14.41;69.62;99718.77;1592917;90;21063;-67
2022/05/28 06:06:12;;;;;;;6.42;3.02;;;;;;;14.44;68.25;99721.08;1592477;89;21109;-69
2022/05/28 06:08:41;;;;;;;5.30;2.80;;;;;;;14.46;67.88;99728.02;1587175;90;21104;-67
2022/05/28 06:11:10;;;;;;;4.80;2.92;;;;;;;14.42;67.29;99724.58;1592989;90;21064;-66
2022/05/28 06:13:38;;;;;;;4.00;2.25;;;;;;;14.32;68.04;99721.03;1593068;90;21024;-67
2022/05/28 06:16:07;;;;;;;5.95;2.47;;;;;;;14.26;68.19;99728.31;1592897;90;21055;-67
2022/05/28 06:18:38;;;;;;;4.05;2.40;;;;;;;14.23;68.28;99737.05;1592940;90;21036;-65
2022/05/28 06:21:06;;;;;;;4.87;3.00;;;;;;;14.25;68.39;99739.03;1593070;90;21188;-65
2022/05/28 06:23:35;;;;;;;4.00;2.40;;;;;;;14.32;68.25;99732.59;1592969;90;21064;-66
2022/05/28 06:26:04;;;;;;;3.25;2.47;;;;;;;14.37;67.77;99731.34;1592992;90;21067;-66
2022/05/28 06:28:35;;;;;;;5.65;2.37;;;;;;;14.36;67.34;99730.50;1592876;90;21206;-66
2022/05/28 06:31:07;;;;;;;5.03;2.62;;;;;;;14.42;67.19;99726.83;1592966;90;21039;-68
2022/05/28 06:46:29;;;;;;;5.60;2.60;;;;;;;15.80;63.03;99712.69;1819348;79;28023;-69
2022/05/28 06:49:01;;;;;;;7.15;3.17;;;;;;;15.94;62.40;99713.21;1824196;78;21125;-69
2022/05/28 06:51:31;;;;;;;3.62;2.58;;;;;;;16.13;62.70;99718.80;1811045;78;21529;-68
2022/05/28 06:54:00;;;;;;;4.40;2.50;;;;;;;16.46;61.39;99718.81;1775115;79;21110;-68
2022/05/28 06:56:29;;;;;;;4.75;2.70;;;;;;;16.80;60.17;99723.77;1804675;79;21599;-69
2022/05/28 06:58:59;;;;;;;4.75;3.05;;;;;;;17.04;58.21;99720.80;1804653;79;21544;-68
2022/05/28 07:01:30;;;;;;;4.20;2.50;;;;;;;17.12;58.21;99718.97;1804641;79;21661;-68
2022/05/28 07:03:59;;;;;;;5.40;2.60;;;;;;;17.11;57.76;99718.68;1804605;79;21579;-67
2022/05/28 07:06:31;;;;;;;5.85;2.37;;;;;;;17.09;56.88;99711.18;1804699;79;21148;-68
2022/05/28 07:09:01;;;;;;;4.30;2.27;;;;;;;17.02;57.08;99718.84;1804623;79;21625;-69
2022/05/28 07:11:30;;;;;;;4.95;2.62;;;;;;;16.96;57.53;99727.63;1804577;79;21133;-70
2022/05/28 07:13:59;;;;;;;6.85;2.67;;;;;;;17.01;57.66;99721.31;1804858;79;21555;-68
2022/05/28 07:16:28;;;;;;;3.70;2.17;;;;;;;17.10;57.63;99721.16;1804752;79;21101;-67
2022/05/28 07:18:58;;;;;;;6.10;2.47;;;;;;;17.23;56.50;99713.84;1804552;79;21089;-69
2022/05/28 07:21:27;;;;;;;5.83;2.37;;;;;;;17.28;56.21;99720.00;1804540;79;21132;-69
2022/05/28 07:23:56;;;;;;;3.42;2.45;;;;;;;17.27;55.49;99722.48;1804641;79;21212;-69
2022/05/28 07:26:25;;;;;;;4.72;2.10;;;;;;;17.19;55.66;99725.70;1804516;79;21548;-69
2022/05/28 07:28:55;;;;;;;3.65;2.00;;;;;;;17.21;54.83;99721.58;1804722;79;21117;-68
2022/05/28 07:31:24;;;;;;;6.70;2.02;;;;;;;17.37;54.43;99733.13;1804645;79;21137;-68
2022/05/28 07:33:53;;;;;;;4.00;1.80;;;;;;;17.58;53.43;99720.93;1804947;79;21097;-69
2022/05/28 07:36:23;;;;;;;7.40;2.08;;;;;;;17.83;51.31;99726.77;1804737;79;21124;-67
2022/05/28 07:38:53;;;;;;;5.87;2.02;;;;;;;18.17;50.82;99725.14;1804776;79;21160;-68
2022/05/28 07:41:24;;;;;;;5.58;2.25;;;;;;;18.38;49.46;99724.24;1804845;79;21149;-72
2022/05/28 07:43:55;;;;;;;3.00;1.95;;;;;;;18.41;48.59;99723.71;1804542;79;21149;-67
2022/05/28 07:46:27;;;;;;;2.60;1.67;;;;;;;18.36;48.34;99718.13;1801639;79;21089;-68
2022/05/28 07:48:56;;;;;;;3.58;1.67;;;;;;;18.27;48.21;99709.45;1785895;80;21599;-70
2022/05/28 07:51:25;;;;;;;3.83;1.70;;;;;;;18.31;47.94;99712.53;1756439;80;21161;-70
2022/05/28 07:53:54;;;;;;;4.87;1.87;;;;;;;18.47;48.55;99725.42;1780360;80;21098;-72
2022/05/28 07:56:23;;;;;;;7.33;2.45;;;;;;;18.69;47.74;99722.55;1778282;80;21076;-71
2022/05/28 07:58:54;;;;;;;3.87;1.62;;;;;;;19.05;47.26;99711.68;1785991;80;21151;-72
2022/05/28 08:01:26;;;;;;;2.08;1.50;;;;;;;19.35;46.32;99715.98;1785928;80;21142;-69
2022/05/28 08:03:58;;;;;;;5.60;1.80;;;;;;;19.55;45.90;99716.66;1785832;80;21094;-66
2022/05/28 08:06:27;;;;;;;3.95;2.20;;;;;;;19.61;46.03;99722.52;1786053;80;21149;-67
2022/05/28 08:08:55;;;;;;;6.12;2.02;;;;;;;19.72;46.37;99711.70;1775595;80;21104;-68
2022/05/28 08:11:24;;;;;;;4.80;1.60;;;;;;;19.92;45.36;99717.86;1770581;80;21176;-66
2022/05/28 08:13:54;;;;;;;3.58;1.70;;;;;;;19.91;44.53;99728.14;1770411;81;21180;-68
2022/05/28 08:16:22;;;;;;;3.02;1.67;;;;;;;19.87;44.57;99726.19;1770351;81;21532;-67
2022/05/28 08:18:52;;;;;;;4.72;1.80;;;;;;;19.67;45.22;99726.98;1770585;81;21593;-70
2022/05/28 08:24:09;;;;;;;4.42;1.90;;;;;;;19.38;44.89;99719.60;1786935;80;21181;-71
2022/05/28 08:26:39;;;;;;;6.15;2.20;;;;;;;19.36;45.20;99732.09;1775175;80;21552;-69
2022/05/28 08:29:07;;;;;;;4.58;2.30;;;;;;;19.47;45.35;99722.13;1786110;80;21098;-68
2022/05/28 08:31:37;;;;;;;5.10;2.00;;;;;;;19.58;45.03;99724.45;1768102;80;21578;-69
2022/05/28 08:34:05;;;;;;;3.75;2.12;;;;;;;19.69;45.89;99728.09;1783886;79;21138;-68
2022/05/28 08:36:35;;;;;;;3.22;1.90;;;;;;;19.85;43.38;99730.63;1759537;81;21548;-68
2022/05/28 08:39:04;;;;;;;3.22;1.80;;;;;;;19.94;44.52;99727.59;1783845;80;21114;-67
2022/05/28 08:41:46;;;;;;;5.47;2.00;;;;;;;20.19;44.16;99721.80;1790915;80;21582;-68
2022/05/28 08:44:30;;;;;;;2.98;1.70;;;;;;;20.39;44.15;99721.84;1790699;80;21098;-64
2022/05/28 08:47:22;;;;;;;2.80;1.70;;;;;;;20.64;42.29;99725.71;1785367;80;21101;-64
2022/05/28 08:49:52;;;;;;;3.37;1.45;;;;;;;20.88;40.82;99733.77;1771994;81;21596;-62
2022/05/28 08:52:49;;;;;;;4.33;2.00;;;;;;;20.85;41.50;99719.85;1805496;79;21210;-63
2022/05/28 08:55:22;;;;;;;7.30;2.55;;;;;;;20.80;40.39;99719.83;1763712;80;21142;-65
2022/05/28 08:58:09;;;;;;;6.33;2.02;;;;;;;20.57;40.19;99724.05;1820994;79;21361;-64
2022/05/28 09:00:43;;;;;;;5.42;1.90;;;;;;;20.31;41.49;99720.13;1821562;79;21521;-63
2022/05/28 09:03:22;;;;;;;4.05;1.60;;;;;;;20.38;41.57;99715.95;1787280;80;21164;-65
2022/05/28 09:06:03;;;;;;;2.67;1.30;;;;;;;20.52;40.20;99722.66;1821011;79;21608;-62
2022/05/28 09:08:44;;;;;;;6.78;1.90;;;;;;;20.51;39.15;99718.77;1787518;80;22080;-67
2022/05/28 09:11:27;;;;;;;4.60;1.50;;;;;;;20.42;38.54;99717.66;1821408;78;21145;-65
2022/05/28 09:13:57;;;;;;;3.67;1.22;;;;;;;20.19;39.46;99724.59;1787346;80;21117;-67
2022/05/28 09:16:31;;;;;;;5.65;1.35;;;;;;;20.03;40.01;99727.05;1821375;78;21549;-64
2022/05/28 09:19:12;;;;;;;4.55;1.35;;;;;;;19.97;40.12;99717.02;1787557;80;21161;-63
2022/05/28 09:21:41;;;;;;;4.22;1.45;;;;;;;19.81;40.75;99719.78;1821203;79;21607;-61
2022/05/28 09:24:20;;;;;;;3.90;1.60;;;;;;;19.76;40.36;99710.05;1787063;80;21215;-63
2022/05/28 09:27:03;;;;;;;5.40;1.50;;;;;;;19.75;40.89;99717.27;1788980;80;21506;-61
2022/05/28 09:30:05;;;;;;;5.22;1.37;;;;;;;19.75;40.35;99715.33;1812845;78;21138;-61
2022/05/28 09:33:10;;;;;;;4.35;1.27;;;;;;;19.73;40.02;99709.76;1788985;79;21097;-64
2022/05/28 09:35:59;;;;;;;2.90;1.52;;;;;;;19.68;40.05;99707.80;1789274;80;21158;-64
2022/05/28 09:39:02;;;;;;;5.25;1.30;;;;;;;19.77;38.44;99700.59;1788800;80;21137;-65
2022/05/28 09:42:11;;;;;;;2.85;1.07;;;;;;;19.78;39.33;99716.16;1788469;80;21125;-67
2022/05/28 09:45:02;;;;;;;6.12;1.17;;;;;;;19.83;38.42;99717.56;1759787;81;21185;-67
2022/05/28 09:47:47;;;;;;;3.20;1.20;;;;;;;19.69;38.02;99719.75;1820877;79;21176;-60
2022/05/28 09:50:32;;;;;;;4.72;1.32;;;;;;;19.59;37.93;99717.79;1821041;79;21144;-60
2022/05/28 09:56:06;;;;;;;4.10;1.30;;;;;;;19.48;38.15;99708.52;1820820;79;21576;-57
2022/05/28 09:58:40;;;;;;;3.55;1.30;;;;;;;19.47;37.96;99708.80;1780054;80;21161;-62
2022/05/28 10:01:26;;;;;;;4.20;1.30;;;;;;;19.40;37.87;99698.49;1797640;80;21156;-62
2022/05/28 10:06:53;;;;;;;5.25;1.45;;;;;;;19.41;38.15;99689.05;1797872;80;21093;-61
2022/05/28 10:09:25;;;;;;;6.10;1.80;;;;;;;19.48;37.87;99691.02;1815832;79;21619;-62
2022/05/28 10:12:03;;;;;;;3.20;1.40;;;;;;;19.52;38.18;99693.03;1816241;78;21114;-60
2022/05/28 10:14:32;;;;;;;4.33;1.60;;;;;;;19.56;38.46;99689.99;1792343;79;21153;-61
2022/05/28 10:17:03;;;;;;;3.10;1.35;;;;;;;19.67;37.17;99700.58;1816057;79;21126;-60
2022/05/28 10:19:43;;;;;;;2.75;1.20;;;;;;;19.62;36.75;99691.67;1816251;79;21150;-61
2022/05/28 10:22:20;;;;;;;4.25;1.37;;;;;;;19.57;37.78;99696.37;1815551;79;21213;-62
2022/05/28 10:24:57;;;;;;;2.65;1.30;;;;;;;19.57;37.81;99696.37;1774267;80;21094;-60
2022/05/28 10:27:37;;;;;;;3.72;1.52;;;;;;;19.54;37.94;99692.20;1797919;79;21160;-61
2022/05/28 10:30:11;;;;;;;5.87;1.55;;;;;;;19.55;37.82;99690.27;1819885;78;21542;-60
2022/05/28 10:32:47;;;;;;;4.08;1.30;;;;;;;19.47;38.03;99690.18;1819759;78;21106;-62
2022/05/28 10:35:26;;;;;;;4.15;1.20;;;;;;;19.42;37.57;99692.11;1821324;79;21111;-62
2022/05/28 10:38:25;;;;;;;3.37;1.12;;;;;;;19.39;36.80;99671.27;1822756;78;21126;-62
2022/05/28 10:41:00;;;;;;;4.92;1.10;;;;;;;19.47;36.18;99676.84;1821395;78;21162;-61
2022/05/28 10:43:39;;;;;;;7.10;1.30;;;;;;;19.46;36.79;99679.34;1796750;79;21155;-60
2022/05/28 10:46:33;;;;;;;3.75;1.22;;;;;;;19.37;36.98;99679.59;1821332;78;21112;-60
2022/05/28 10:49:44;;;;;;;5.78;1.40;;;;;;;19.33;36.82;99678.75;1786334;80;21552;-60
2022/05/28 10:52:29;;;;;;;2.45;1.07;;;;;;;19.44;36.28;99676.00;1826492;78;21149;-62
2022/05/28 10:55:17;;;;;;;1.57;1.00;;;;;;;19.54;36.89;99678.31;1792618;80;21115;-61
2022/05/28 10:58:14;;;;;;;2.80;1.22;;;;;;;19.56;36.96;99676.65;1794508;80;21118;-60
2022/05/28 11:01:05;;;;;;;4.60;1.10;;;;;;;19.54;36.36;99669.98;1790637;80;21162;-61
2022/05/28 11:04:01;;;;;;;2.52;1.20;;;;;;;19.51;37.24;99655.21;1800789;80;21097;-59
2022/05/28 11:07:01;;;;;;;3.42;1.22;;;;;;;19.58;37.28;99676.66;1847922;77;22172;-62
2022/05/28 11:10:13;;;;;;;3.33;1.00;;;;;;;19.53;36.94;99673.86;1819533;79;21630;-59
2022/05/28 11:12:53;;;;;;;2.50;1.17;;;;;;;19.53;36.74;99663.30;1753874;82;21122;-61
2022/05/28 11:15:39;;;;;;;1.95;1.20;;;;;;;19.58;36.38;99671.09;1753999;82;21130;-61
2022/05/28 11:18:31;;;;;;;;;;;;;;;19.55;36.56;99661.92;1787399;80;21197;-58
2022/05/28 11:21:18;;;;;;;2.83;1.00;;;;;;;19.54;37.05;99660.80;1784889;80;20151;-59
2022/05/28 11:23:55;;;;;;;2.58;1.15;;;;;;;19.52;36.72;99665.77;1753734;82;21121;-60
2022/05/28 11:26:46;;;;;;;2.50;1.05;;;;;;;19.49;37.08;99659.34;1753940;82;21166;-59
2022/05/28 11:29:29;;;;;;;3.58;1.35;;;;;;;19.55;37.96;99665.25;1753726;82;21158;-59
2022/05/28 11:32:03;;;;;;;2.60;1.50;;;;;;;19.63;37.43;99670.27;1753790;82;21173;-64
2022/05/28 11:34:58;;;;;;;2.58;1.40;;;;;;;19.59;37.61;99664.43;1722233;83;21547;-62
2022/05/28 11:37:37;;;;;;;3.35;1.30;;;;;;;19.55;37.58;99652.20;1722443;83;21608;-61
2022/05/28 11:40:21;;;;;;;3.33;1.40;;;;;;;19.48;38.20;99655.73;1722065;83;21131;-61
2022/05/28 11:43:15;;;;;;;2.80;1.25;;;;;;;19.56;37.22;99651.64;1724071;83;21157;-63
2022/05/28 11:45:50;;;;;;;3.15;1.40;;;;;;;19.61;37.71;99653.04;1753615;82;21566;-61
2022/05/28 11:51:40;;;;;;;3.35;1.40;;;;;;;19.62;37.62;99647.76;1753939;82;21126;-62
2022/05/28 11:54:28;;;;;;;2.60;1.12;;;;;;;19.62;36.62;99663.05;1753752;82;21202;-62
2022/05/28 11:56:58;;;;;;;;;;;;;;;19.59;34.61;99667.77;1756605;82;21562;-62
2022/05/28 11:59:27;;;;;;;2.60;1.20;;;;;;;19.43;35.40;99662.66;1753812;82;20177;-62
2022/05/28 12:02:13;;;;;;;3.30;1.00;;;;;;;19.34;35.36;99672.64;1722238;83;21146;-62
2022/05/28 12:04:44;;;;;;;1.87;1.00;;;;;;;19.29;35.60;99670.68;1747481;82;21565;-61
2022/05/28 12:07:36;;;;;;;4.97;1.50;;;;;;;19.27;34.87;99671.51;1737943;82;21051;-62
2022/05/28 12:10:15;;;;;;;3.15;1.55;;;;;;;19.25;35.30;99654.28;1806797;79;21139;-63
2022/05/28 12:12:58;;;;;;;;;;;;;;;19.29;35.59;99671.23;1805092;79;21103;-61
2022/05/28 12:15:31;;;;;;;3.05;1.52;;;;;;;19.34;34.76;99668.47;1806666;79;20467;-62
2022/05/28 12:18:22;;;;;;;3.37;1.60;;;;;;;19.34;34.22;99664.30;1737467;82;21195;-62
2022/05/28 12:20:58;;;;;;;5.95;2.05;;;;;;;19.32;34.35;99667.36;1806334;79;21134;-61
2022/05/28 12:23:37;;;;;;;3.33;1.10;;;;;;;19.33;33.74;99658.47;1806120;79;21087;-61
2022/05/28 12:29:39;;;;;;;2.25;1.00;;;;;;;19.36;34.76;99672.36;1805891;79;21103;-63
2022/05/28 12:32:23;;;;;;;3.25;1.00;;;;;;;19.32;34.29;99656.24;1784440;79;21519;-63
2022/05/28 12:34:56;;;;;;;3.20;1.10;;;;;;;19.29;34.52;99665.13;1774544;81;21115;-63